Spicewood, Texas
Current Conditions -  °F | °C
As of 9:55 AM on Friday 24 Oct 2014 (Local Time) from KRYW Reporting Station
Clear Clear  
Wind Chill: 70°   Ceiling: Unl
Heat Index: 70°   Visibility: 10mi
Dew Point: 58°   Wind: 3mph
Humidity: 65%   Direction: 200°SSW
Pressure: 30.2"   Gusts: NA
Location:  30.48°N, 98.16°W
Report Text: KRYW 241455Z AUTO 20003KT 10SM CLR 21/14 A3020 RMK AO2 T02120143
Loading
Personal Weather Stations






























Interactive Weather Map
Tropical Storm Tracking
New forecast layout! Learn more

10-Day Weather Forecast

Advertisements
Track Severe Weather on mobile